sensor_id;sensor_type;location;lat;lon;timestamp;temperature;humidity
17988;DHT22;9119;50.932;5.342;2023-05-10T00:00:01;14.40;99.90
17988;DHT22;9119;50.932;5.342;2023-05-10T00:02:26;14.40;99.90
17988;DHT22;9119;50.932;5.342;2023-05-10T00:04:52;14.40;99.90
17988;DHT22;9119;50.932;5.342;2023-05-10T00:07:18;14.40;99.90
17988;DHT22;9119;50.932;5.342;2023-05-10T00:09:43;14.40;99.90
17988;DHT22;9119;50.932;5.342;2023-05-10T00:12:09;14.40;99.90
17988;DHT22;9119;50.932;5.342;2023-05-10T00:14:35;14.30;99.90
17988;DHT22;9119;50.932;5.342;2023-05-10T00:17:01;14.20;99.90
17988;DHT22;9119;50.932;5.342;2023-05-10T00:19:27;14.30;99.90
17988;DHT22;9119;50.932;5.342;2023-05-10T00:21:52;14.30;99.90
17988;DHT22;9119;50.932;5.342;2023-05-10T00:24:18;14.30;99.90
17988;DHT22;9119;50.932;5.342;2023-05-10T00:26:44;14.40;99.90
17988;DHT22;9119;50.932;5.342;2023-05-10T00:29:10;14.40;99.90
17988;DHT22;9119;50.932;5.342;2023-05-10T00:31:35;14.30;99.90
17988;DHT22;9119;50.932;5.342;2023-05-10T00:34:01;14.30;99.90
17988;DHT22;9119;50.932;5.342;2023-05-10T00:36:27;14.30;99.90
17988;DHT22;9119;50.932;5.342;2023-05-10T00:38:53;14.30;99.90
17988;DHT22;9119;50.932;5.342;2023-05-10T00:41:19;14.30;99.90
17988;DHT22;9119;50.932;5.342;2023-05-10T00:43:46;14.30;99.90
17988;DHT22;9119;50.932;5.342;2023-05-10T00:46:13;14.30;99.90
17988;DHT22;9119;50.932;5.342;2023-05-10T00:48:39;14.30;99.90
17988;DHT22;9119;50.932;5.342;2023-05-10T00:51:05;14.30;99.90
17988;DHT22;9119;50.932;5.342;2023-05-10T00:53:32;14.30;99.90
17988;DHT22;9119;50.932;5.342;2023-05-10T00:55:59;14.30;99.90
17988;DHT22;9119;50.932;5.342;2023-05-10T00:58:25;14.20;99.90
17988;DHT22;9119;50.932;5.342;2023-05-10T01:00:54;14.20;99.90
17988;DHT22;9119;50.932;5.342;2023-05-10T01:03:21;14.20;99.90
17988;DHT22;9119;50.932;5.342;2023-05-10T01:05:47;14.20;99.90
17988;DHT22;9119;50.932;5.342;2023-05-10T01:08:13;14.10;99.90
17988;DHT22;9119;50.932;5.342;2023-05-10T01:10:38;14.20;99.90
17988;DHT22;9119;50.932;5.342;2023-05-10T01:13:04;14.20;99.90
17988;DHT22;9119;50.932;5.342;2023-05-10T01:15:31;14.10;99.90
17988;DHT22;9119;50.932;5.342;2023-05-10T01:17:56;14.10;99.90
17988;DHT22;9119;50.932;5.342;2023-05-10T01:20:23;14.10;99.90
17988;DHT22;9119;50.932;5.342;2023-05-10T01:31:30;14.00;99.90
17988;DHT22;9119;50.932;5.342;2023-05-10T01:34:04;14.00;99.90
17988;DHT22;9119;50.932;5.342;2023-05-10T01:36:39;14.00;99.90
17988;DHT22;9119;50.932;5.342;2023-05-10T01:39:17;13.90;99.90
17988;DHT22;9119;50.932;5.342;2023-05-10T01:42:11;14.00;99.90
17988;DHT22;9119;50.932;5.342;2023-05-10T01:44:49;14.00;99.90
17988;DHT22;9119;50.932;5.342;2023-05-10T01:47:34;13.80;99.90
17988;DHT22;9119;50.932;5.342;2023-05-10T01:50:03;13.90;99.90
17988;DHT22;9119;50.932;5.342;2023-05-10T01:52:40;13.90;99.90
17988;DHT22;9119;50.932;5.342;2023-05-10T01:55:11;14.00;99.90
17988;DHT22;9119;50.932;5.342;2023-05-10T01:57:41;14.00;99.90
17988;DHT22;9119;50.932;5.342;2023-05-10T02:00:09;14.00;99.90
17988;DHT22;9119;50.932;5.342;2023-05-10T02:02:40;14.00;99.90
17988;DHT22;9119;50.932;5.342;2023-05-10T02:05:08;14.10;99.90
17988;DHT22;9119;50.932;5.342;2023-05-10T02:07:35;14.00;99.90
17988;DHT22;9119;50.932;5.342;2023-05-10T02:10:06;14.00;99.90
17988;DHT22;9119;50.932;5.342;2023-05-10T02:12:38;14.00;99.90
17988;DHT22;9119;50.932;5.342;2023-05-10T02:15:05;14.00;99.90
17988;DHT22;9119;50.932;5.342;2023-05-10T02:17:33;13.90;99.90
17988;DHT22;9119;50.932;5.342;2023-05-10T02:20:01;14.00;99.90
17988;DHT22;9119;50.932;5.342;2023-05-10T02:22:27;14.00;99.90
17988;DHT22;9119;50.932;5.342;2023-05-10T02:24:58;14.10;99.90
17988;DHT22;9119;50.932;5.342;2023-05-10T02:27:24;14.00;99.90
17988;DHT22;9119;50.932;5.342;2023-05-10T02:29:51;14.10;99.90
17988;DHT22;9119;50.932;5.342;2023-05-10T02:32:18;14.10;99.90
17988;DHT22;9119;50.932;5.342;2023-05-10T02:34:45;14.00;99.90
17988;DHT22;9119;50.932;5.342;2023-05-10T02:37:13;14.00;99.90
17988;DHT22;9119;50.932;5.342;2023-05-10T02:39:40;14.00;99.90
17988;DHT22;9119;50.932;5.342;2023-05-10T02:42:18;14.10;99.90
17988;DHT22;9119;50.932;5.342;2023-05-10T02:44:47;14.10;99.90
17988;DHT22;9119;50.932;5.342;2023-05-10T02:47:14;14.10;99.90
17988;DHT22;9119;50.932;5.342;2023-05-10T02:49:40;14.00;99.90
17988;DHT22;9119;50.932;5.342;2023-05-10T02:52:06;14.00;99.90
17988;DHT22;9119;50.932;5.342;2023-05-10T02:54:39;14.00;99.90
17988;DHT22;9119;50.932;5.342;2023-05-10T02:57:07;14.00;99.90
17988;DHT22;9119;50.932;5.342;2023-05-10T02:59:35;14.00;99.90
17988;DHT22;9119;50.932;5.342;2023-05-10T03:02:01;14.10;99.90
17988;DHT22;9119;50.932;5.342;2023-05-10T03:04:27;14.10;99.90
17988;DHT22;9119;50.932;5.342;2023-05-10T03:06:53;14.10;99.90
17988;DHT22;9119;50.932;5.342;2023-05-10T03:09:19;14.10;99.90
17988;DHT22;9119;50.932;5.342;2023-05-10T03:14:49;14.10;99.90
17988;DHT22;9119;50.932;5.342;2023-05-10T03:19:57;14.00;99.90
17988;DHT22;9119;50.932;5.342;2023-05-10T03:22:26;14.10;99.90
17988;DHT22;9119;50.932;5.342;2023-05-10T03:24:55;14.00;99.90
17988;DHT22;9119;50.932;5.342;2023-05-10T03:27:23;14.00;99.90
17988;DHT22;9119;50.932;5.342;2023-05-10T03:29:51;13.90;99.90
17988;DHT22;9119;50.932;5.342;2023-05-10T03:32:18;13.90;99.90
17988;DHT22;9119;50.932;5.342;2023-05-10T03:34:43;13.90;99.90
17988;DHT22;9119;50.932;5.342;2023-05-10T03:37:09;13.90;99.90
17988;DHT22;9119;50.932;5.342;2023-05-10T03:39:36;13.90;99.90
17988;DHT22;9119;50.932;5.342;2023-05-10T03:42:01;13.90;99.90
17988;DHT22;9119;50.932;5.342;2023-05-10T03:44:27;13.90;99.90
17988;DHT22;9119;50.932;5.342;2023-05-10T03:46:53;13.90;99.90
17988;DHT22;9119;50.932;5.342;2023-05-10T03:49:19;13.90;99.90
17988;DHT22;9119;50.932;5.342;2023-05-10T03:51:44;13.90;99.90
17988;DHT22;9119;50.932;5.342;2023-05-10T03:54:10;13.90;99.90
17988;DHT22;9119;50.932;5.342;2023-05-10T03:56:36;13.90;99.90
17988;DHT22;9119;50.932;5.342;2023-05-10T03:59:01;13.80;99.90
17988;DHT22;9119;50.932;5.342;2023-05-10T04:01:33;13.90;99.90
17988;DHT22;9119;50.932;5.342;2023-05-10T04:03:58;13.90;99.90
17988;DHT22;9119;50.932;5.342;2023-05-10T04:06:24;13.90;99.90
17988;DHT22;9119;50.932;5.342;2023-05-10T04:08:50;13.90;99.90
17988;DHT22;9119;50.932;5.342;2023-05-10T04:11:15;14.00;99.90
17988;DHT22;9119;50.932;5.342;2023-05-10T04:13:41;13.80;99.90
17988;DHT22;9119;50.932;5.342;2023-05-10T04:16:08;13.60;99.90
17988;DHT22;9119;50.932;5.342;2023-05-10T04:18:34;13.50;99.90
17988;DHT22;9119;50.932;5.342;2023-05-10T04:21:00;13.40;99.90
17988;DHT22;9119;50.932;5.342;2023-05-10T04:23:27;13.50;99.90
17988;DHT22;9119;50.932;5.342;2023-05-10T04:25:58;13.50;99.90
17988;DHT22;9119;50.932;5.342;2023-05-10T04:28:24;13.50;99.90
17988;DHT22;9119;50.932;5.342;2023-05-10T04:30:50;13.50;99.90
17988;DHT22;9119;50.932;5.342;2023-05-10T04:33:15;13.60;99.90
17988;DHT22;9119;50.932;5.342;2023-05-10T04:35:41;13.60;99.90
17988;DHT22;9119;50.932;5.342;2023-05-10T04:38:06;13.60;99.90
17988;DHT22;9119;50.932;5.342;2023-05-10T04:40:32;13.60;99.90
17988;DHT22;9119;50.932;5.342;2023-05-10T04:42:58;13.60;99.90
17988;DHT22;9119;50.932;5.342;2023-05-10T04:45:24;13.60;99.90
17988;DHT22;9119;50.932;5.342;2023-05-10T04:47:49;13.60;99.90
17988;DHT22;9119;50.932;5.342;2023-05-10T04:50:15;13.60;99.90
17988;DHT22;9119;50.932;5.342;2023-05-10T04:52:41;13.60;99.90
17988;DHT22;9119;50.932;5.342;2023-05-10T04:55:07;13.60;99.90
17988;DHT22;9119;50.932;5.342;2023-05-10T04:57:34;13.50;99.90
17988;DHT22;9119;50.932;5.342;2023-05-10T05:00:00;13.50;99.90
17988;DHT22;9119;50.932;5.342;2023-05-10T05:02:26;13.40;99.90
17988;DHT22;9119;50.932;5.342;2023-05-10T05:04:51;13.30;99.90
17988;DHT22;9119;50.932;5.342;2023-05-10T05:07:17;13.40;99.90
17988;DHT22;9119;50.932;5.342;2023-05-10T05:09:43;13.30;99.90
17988;DHT22;9119;50.932;5.342;2023-05-10T05:12:08;13.20;99.90
17988;DHT22;9119;50.932;5.342;2023-05-10T05:14:39;13.20;99.90
17988;DHT22;9119;50.932;5.342;2023-05-10T05:17:05;13.10;99.90
17988;DHT22;9119;50.932;5.342;2023-05-10T05:19:31;13.10;99.90
17988;DHT22;9119;50.932;5.342;2023-05-10T05:21:57;13.10;99.90
17988;DHT22;9119;50.932;5.342;2023-05-10T05:24:22;13.10;99.90
17988;DHT22;9119;50.932;5.342;2023-05-10T05:26:48;13.10;99.90
17988;DHT22;9119;50.932;5.342;2023-05-10T05:29:14;13.10;99.90
17988;DHT22;9119;50.932;5.342;2023-05-10T05:31:39;13.10;99.90
17988;DHT22;9119;50.932;5.342;2023-05-10T05:34:05;13.30;99.90
17988;DHT22;9119;50.932;5.342;2023-05-10T05:36:31;13.30;99.90
17988;DHT22;9119;50.932;5.342;2023-05-10T05:38:57;13.20;99.90
17988;DHT22;9119;50.932;5.342;2023-05-10T05:41:23;13.30;99.90
17988;DHT22;9119;50.932;5.342;2023-05-10T05:43:50;13.20;99.90
17988;DHT22;9119;50.932;5.342;2023-05-10T05:46:15;13.30;99.90
17988;DHT22;9119;50.932;5.342;2023-05-10T05:48:41;13.30;99.90
17988;DHT22;9119;50.932;5.342;2023-05-10T05:51:07;13.30;99.90
17988;DHT22;9119;50.932;5.342;2023-05-10T05:53:32;13.30;99.90
17988;DHT22;9119;50.932;5.342;2023-05-10T05:55:58;13.30;99.90
17988;DHT22;9119;50.932;5.342;2023-05-10T05:58:25;13.30;99.90
17988;DHT22;9119;50.932;5.342;2023-05-10T06:00:51;13.30;99.90
17988;DHT22;9119;50.932;5.342;2023-05-10T06:03:18;13.40;99.90
17988;DHT22;9119;50.932;5.342;2023-05-10T06:05:43;13.40;99.90
17988;DHT22;9119;50.932;5.342;2023-05-10T06:08:09;13.50;99.90
17988;DHT22;9119;50.932;5.342;2023-05-10T06:10:36;13.60;99.90
17988;DHT22;9119;50.932;5.342;2023-05-10T06:13:01;13.50;99.90
17988;DHT22;9119;50.932;5.342;2023-05-10T06:15:27;13.60;99.90
17988;DHT22;9119;50.932;5.342;2023-05-10T06:17:53;13.60;99.90
17988;DHT22;9119;50.932;5.342;2023-05-10T06:20:18;13.70;99.90
17988;DHT22;9119;50.932;5.342;2023-05-10T06:22:44;13.60;99.90
17988;DHT22;9119;50.932;5.342;2023-05-10T06:25:10;13.50;99.90
17988;DHT22;9119;50.932;5.342;2023-05-10T06:27:37;13.60;99.90
17988;DHT22;9119;50.932;5.342;2023-05-10T06:30:03;13.70;99.90
17988;DHT22;9119;50.932;5.342;2023-05-10T06:32:29;13.80;99.90
17988;DHT22;9119;50.932;5.342;2023-05-10T06:34:54;13.70;99.90
17988;DHT22;9119;50.932;5.342;2023-05-10T06:37:20;13.80;99.90
17988;DHT22;9119;50.932;5.342;2023-05-10T06:39:46;13.80;99.90
17988;DHT22;9119;50.932;5.342;2023-05-10T06:42:11;13.80;99.90
17988;DHT22;9119;50.932;5.342;2023-05-10T06:44:37;13.80;99.90
17988;DHT22;9119;50.932;5.342;2023-05-10T06:47:03;13.80;99.90
17988;DHT22;9119;50.932;5.342;2023-05-10T06:49:28;13.80;99.90
17988;DHT22;9119;50.932;5.342;2023-05-10T06:51:55;13.80;99.90
17988;DHT22;9119;50.932;5.342;2023-05-10T06:54:21;13.80;99.90
17988;DHT22;9119;50.932;5.342;2023-05-10T06:56:47;13.90;99.90
17988;DHT22;9119;50.932;5.342;2023-05-10T06:59:12;13.80;99.90
17988;DHT22;9119;50.932;5.342;2023-05-10T07:01:39;13.80;99.90
17988;DHT22;9119;50.932;5.342;2023-05-10T07:04:05;13.80;99.90
17988;DHT22;9119;50.932;5.342;2023-05-10T07:06:30;13.80;99.90
17988;DHT22;9119;50.932;5.342;2023-05-10T07:08:56;13.90;99.90
17988;DHT22;9119;50.932;5.342;2023-05-10T07:11:22;13.80;99.90
17988;DHT22;9119;50.932;5.342;2023-05-10T07:13:48;13.80;99.90
17988;DHT22;9119;50.932;5.342;2023-05-10T07:16:13;13.90;99.90
17988;DHT22;9119;50.932;5.342;2023-05-10T07:19:04;13.90;99.90
17988;DHT22;9119;50.932;5.342;2023-05-10T07:21:30;14.00;99.90
17988;DHT22;9119;50.932;5.342;2023-05-10T07:23:56;14.10;99.90
17988;DHT22;9119;50.932;5.342;2023-05-10T07:26:22;14.10;99.90
17988;DHT22;9119;50.932;5.342;2023-05-10T07:28:47;14.20;99.90
17988;DHT22;9119;50.932;5.342;2023-05-10T07:31:13;14.10;99.90
17988;DHT22;9119;50.932;5.342;2023-05-10T07:33:39;14.10;99.90
17988;DHT22;9119;50.932;5.342;2023-05-10T07:36:05;14.10;99.90
17988;DHT22;9119;50.932;5.342;2023-05-10T07:38:31;14.10;99.90
17988;DHT22;9119;50.932;5.342;2023-05-10T07:40:56;14.20;99.90
17988;DHT22;9119;50.932;5.342;2023-05-10T07:43:22;14.10;99.90
17988;DHT22;9119;50.932;5.342;2023-05-10T07:45:47;14.20;99.90
17988;DHT22;9119;50.932;5.342;2023-05-10T07:48:13;14.20;99.90
17988;DHT22;9119;50.932;5.342;2023-05-10T07:50:39;14.30;99.90
17988;DHT22;9119;50.932;5.342;2023-05-10T07:53:05;14.10;99.90
17988;DHT22;9119;50.932;5.342;2023-05-10T07:55:30;14.20;99.90
17988;DHT22;9119;50.932;5.342;2023-05-10T07:57:56;14.30;99.90
17988;DHT22;9119;50.932;5.342;2023-05-10T08:00:22;14.30;99.90
17988;DHT22;9119;50.932;5.342;2023-05-10T08:02:47;14.50;99.90
17988;DHT22;9119;50.932;5.342;2023-05-10T08:05:13;14.30;99.90
17988;DHT22;9119;50.932;5.342;2023-05-10T08:07:39;14.30;99.90
17988;DHT22;9119;50.932;5.342;2023-05-10T08:10:06;14.30;99.90
17988;DHT22;9119;50.932;5.342;2023-05-10T08:12:32;14.40;99.90
17988;DHT22;9119;50.932;5.342;2023-05-10T08:14:57;14.30;99.90
17988;DHT22;9119;50.932;5.342;2023-05-10T08:17:23;14.10;99.90
17988;DHT22;9119;50.932;5.342;2023-05-10T08:19:49;14.00;99.90
17988;DHT22;9119;50.932;5.342;2023-05-10T08:22:14;14.00;99.90
17988;DHT22;9119;50.932;5.342;2023-05-10T08:24:40;13.90;99.90
17988;DHT22;9119;50.932;5.342;2023-05-10T08:27:08;13.90;99.90
17988;DHT22;9119;50.932;5.342;2023-05-10T08:29:34;13.90;99.90
17988;DHT22;9119;50.932;5.342;2023-05-10T08:31:59;13.80;99.90
17988;DHT22;9119;50.932;5.342;2023-05-10T08:34:26;13.80;99.90
17988;DHT22;9119;50.932;5.342;2023-05-10T08:36:52;13.80;99.90
17988;DHT22;9119;50.932;5.342;2023-05-10T08:39:18;13.70;99.90
17988;DHT22;9119;50.932;5.342;2023-05-10T08:41:44;13.80;99.90
17988;DHT22;9119;50.932;5.342;2023-05-10T08:44:11;13.60;99.90
17988;DHT22;9119;50.932;5.342;2023-05-10T08:46:37;13.70;99.90
17988;DHT22;9119;50.932;5.342;2023-05-10T08:49:11;13.80;99.90
17988;DHT22;9119;50.932;5.342;2023-05-10T08:51:40;13.90;99.90
17988;DHT22;9119;50.932;5.342;2023-05-10T08:54:09;14.20;99.90
17988;DHT22;9119;50.932;5.342;2023-05-10T08:56:35;14.10;99.90
17988;DHT22;9119;50.932;5.342;2023-05-10T08:59:01;14.70;99.90
17988;DHT22;9119;50.932;5.342;2023-05-10T09:01:28;14.90;99.90
17988;DHT22;9119;50.932;5.342;2023-05-10T09:03:57;15.00;99.90
17988;DHT22;9119;50.932;5.342;2023-05-10T09:06:23;14.70;99.90
17988;DHT22;9119;50.932;5.342;2023-05-10T09:08:50;14.60;99.90
17988;DHT22;9119;50.932;5.342;2023-05-10T09:11:16;14.70;99.90
17988;DHT22;9119;50.932;5.342;2023-05-10T09:13:42;14.90;99.90
17988;DHT22;9119;50.932;5.342;2023-05-10T09:16:09;15.10;99.90
17988;DHT22;9119;50.932;5.342;2023-05-10T09:18:35;15.10;99.90
17988;DHT22;9119;50.932;5.342;2023-05-10T09:21:00;14.80;99.90
17988;DHT22;9119;50.932;5.342;2023-05-10T09:23:26;14.80;99.90
17988;DHT22;9119;50.932;5.342;2023-05-10T09:26:07;15.00;99.90
17988;DHT22;9119;50.932;5.342;2023-05-10T09:28:57;15.10;99.90
17988;DHT22;9119;50.932;5.342;2023-05-10T09:31:23;15.20;99.90
17988;DHT22;9119;50.932;5.342;2023-05-10T09:33:51;15.30;99.90
17988;DHT22;9119;50.932;5.342;2023-05-10T09:36:17;15.30;99.90
17988;DHT22;9119;50.932;5.342;2023-05-10T09:38:51;15.30;99.90
17988;DHT22;9119;50.932;5.342;2023-05-10T09:41:24;15.20;99.90
17988;DHT22;9119;50.932;5.342;2023-05-10T09:43:51;15.10;99.90
17988;DHT22;9119;50.932;5.342;2023-05-10T09:46:20;15.10;99.90
17988;DHT22;9119;50.932;5.342;2023-05-10T09:48:47;15.10;99.90
17988;DHT22;9119;50.932;5.342;2023-05-10T09:51:23;15.00;99.90
17988;DHT22;9119;50.932;5.342;2023-05-10T09:54:12;15.00;99.90
17988;DHT22;9119;50.932;5.342;2023-05-10T09:56:39;15.00;99.90
17988;DHT22;9119;50.932;5.342;2023-05-10T09:59:09;15.00;99.90
17988;DHT22;9119;50.932;5.342;2023-05-10T10:01:35;15.10;99.90
17988;DHT22;9119;50.932;5.342;2023-05-10T10:04:09;15.10;99.90
17988;DHT22;9119;50.932;5.342;2023-05-10T10:06:39;15.20;99.90
17988;DHT22;9119;50.932;5.342;2023-05-10T10:09:06;15.30;99.90
17988;DHT22;9119;50.932;5.342;2023-05-10T10:11:34;15.20;99.90
17988;DHT22;9119;50.932;5.342;2023-05-10T10:14:00;15.00;99.90
17988;DHT22;9119;50.932;5.342;2023-05-10T10:16:28;15.20;99.90
17988;DHT22;9119;50.932;5.342;2023-05-10T10:18:55;15.10;99.90
17988;DHT22;9119;50.932;5.342;2023-05-10T10:21:22;15.00;99.90
17988;DHT22;9119;50.932;5.342;2023-05-10T10:23:47;14.90;99.90
17988;DHT22;9119;50.932;5.342;2023-05-10T10:26:13;14.90;99.90
17988;DHT22;9119;50.932;5.342;2023-05-10T10:31:48;14.80;99.90
17988;DHT22;9119;50.932;5.342;2023-05-10T10:34:26;14.70;99.90
17988;DHT22;9119;50.932;5.342;2023-05-10T10:36:56;14.80;99.90
17988;DHT22;9119;50.932;5.342;2023-05-10T10:39:23;14.90;99.90
17988;DHT22;9119;50.932;5.342;2023-05-10T10:41:54;14.90;99.90
17988;DHT22;9119;50.932;5.342;2023-05-10T10:49:49;15.10;99.90
17988;DHT22;9119;50.932;5.342;2023-05-10T10:55:00;15.20;99.90
17988;DHT22;9119;50.932;5.342;2023-05-10T10:57:49;15.20;99.90
17988;DHT22;9119;50.932;5.342;2023-05-10T11:05:49;15.20;99.90
17988;DHT22;9119;50.932;5.342;2023-05-10T11:08:31;15.30;99.90
17988;DHT22;9119;50.932;5.342;2023-05-10T11:13:39;15.10;99.90
17988;DHT22;9119;50.932;5.342;2023-05-10T11:16:16;15.10;99.90
17988;DHT22;9119;50.932;5.342;2023-05-10T11:19:02;15.10;99.90
17988;DHT22;9119;50.932;5.342;2023-05-10T11:21:30;15.30;99.90
17988;DHT22;9119;50.932;5.342;2023-05-10T11:23:57;15.10;99.90
17988;DHT22;9119;50.932;5.342;2023-05-10T11:26:35;15.00;99.90
17988;DHT22;9119;50.932;5.342;2023-05-10T11:29:01;15.00;99.90
17988;DHT22;9119;50.932;5.342;2023-05-10T11:31:28;15.10;99.90
17988;DHT22;9119;50.932;5.342;2023-05-10T11:33:55;15.30;99.90
17988;DHT22;9119;50.932;5.342;2023-05-10T11:36:41;15.30;99.90
17988;DHT22;9119;50.932;5.342;2023-05-10T11:39:07;15.50;99.90
17988;DHT22;9119;50.932;5.342;2023-05-10T11:41:33;15.50;99.90
17988;DHT22;9119;50.932;5.342;2023-05-10T11:43:58;15.70;99.90
17988;DHT22;9119;50.932;5.342;2023-05-10T11:46:26;15.70;99.90
17988;DHT22;9119;50.932;5.342;2023-05-10T11:49:00;15.90;99.90
17988;DHT22;9119;50.932;5.342;2023-05-10T11:51:27;15.60;99.90
17988;DHT22;9119;50.932;5.342;2023-05-10T11:53:54;15.70;99.90
17988;DHT22;9119;50.932;5.342;2023-05-10T11:56:20;16.00;99.90
17988;DHT22;9119;50.932;5.342;2023-05-10T11:58:55;16.10;99.90
17988;DHT22;9119;50.932;5.342;2023-05-10T12:01:22;16.10;99.90
17988;DHT22;9119;50.932;5.342;2023-05-10T12:03:49;16.10;99.90
17988;DHT22;9119;50.932;5.342;2023-05-10T12:06:15;16.00;99.90
17988;DHT22;9119;50.932;5.342;2023-05-10T12:08:45;15.90;99.90
17988;DHT22;9119;50.932;5.342;2023-05-10T12:11:12;15.90;99.90
17988;DHT22;9119;50.932;5.342;2023-05-10T12:13:43;15.70;99.90
17988;DHT22;9119;50.932;5.342;2023-05-10T12:16:24;15.70;99.90
17988;DHT22;9119;50.932;5.342;2023-05-10T12:18:50;15.70;99.90
17988;DHT22;9119;50.932;5.342;2023-05-10T12:21:16;15.60;99.90
17988;DHT22;9119;50.932;5.342;2023-05-10T12:23:45;15.70;99.90
17988;DHT22;9119;50.932;5.342;2023-05-10T12:26:11;15.80;99.90
17988;DHT22;9119;50.932;5.342;2023-05-10T12:28:38;15.80;99.90
17988;DHT22;9119;50.932;5.342;2023-05-10T12:31:06;15.90;99.90
17988;DHT22;9119;50.932;5.342;2023-05-10T12:33:42;16.00;99.90
17988;DHT22;9119;50.932;5.342;2023-05-10T12:36:10;16.00;99.90
17988;DHT22;9119;50.932;5.342;2023-05-10T12:38:38;16.10;99.90
17988;DHT22;9119;50.932;5.342;2023-05-10T12:41:12;16.00;99.90
17988;DHT22;9119;50.932;5.342;2023-05-10T12:43:38;16.10;99.90
17988;DHT22;9119;50.932;5.342;2023-05-10T12:46:15;16.30;99.90
17988;DHT22;9119;50.932;5.342;2023-05-10T12:48:42;16.30;99.90
17988;DHT22;9119;50.932;5.342;2023-05-10T12:51:08;16.40;99.90
17988;DHT22;9119;50.932;5.342;2023-05-10T12:53:41;16.30;99.90
17988;DHT22;9119;50.932;5.342;2023-05-10T12:56:07;16.20;99.90
17988;DHT22;9119;50.932;5.342;2023-05-10T12:58:33;16.30;99.90
17988;DHT22;9119;50.932;5.342;2023-05-10T13:00:59;16.40;99.90
17988;DHT22;9119;50.932;5.342;2023-05-10T13:03:25;16.40;99.90
17988;DHT22;9119;50.932;5.342;2023-05-10T13:05:51;16.30;99.90
17988;DHT22;9119;50.932;5.342;2023-05-10T13:08:16;16.20;99.90
17988;DHT22;9119;50.932;5.342;2023-05-10T13:10:42;16.40;99.90
17988;DHT22;9119;50.932;5.342;2023-05-10T13:13:08;16.50;99.90
17988;DHT22;9119;50.932;5.342;2023-05-10T13:15:34;16.50;99.90
17988;DHT22;9119;50.932;5.342;2023-05-10T13:18:00;16.50;99.90
17988;DHT22;9119;50.932;5.342;2023-05-10T13:20:26;16.60;99.90
17988;DHT22;9119;50.932;5.342;2023-05-10T13:22:52;16.70;99.90
17988;DHT22;9119;50.932;5.342;2023-05-10T13:25:18;16.70;99.90
17988;DHT22;9119;50.932;5.342;2023-05-10T13:27:44;16.80;99.90
17988;DHT22;9119;50.932;5.342;2023-05-10T13:30:10;16.90;99.90
17988;DHT22;9119;50.932;5.342;2023-05-10T13:32:37;17.00;99.90
17988;DHT22;9119;50.932;5.342;2023-05-10T13:35:03;17.00;99.90
17988;DHT22;9119;50.932;5.342;2023-05-10T13:37:30;17.10;99.90
17988;DHT22;9119;50.932;5.342;2023-05-10T13:39:56;17.30;99.90
17988;DHT22;9119;50.932;5.342;2023-05-10T13:42:22;17.30;99.90
17988;DHT22;9119;50.932;5.342;2023-05-10T13:44:49;17.30;99.90
17988;DHT22;9119;50.932;5.342;2023-05-10T13:47:15;17.40;99.90
17988;DHT22;9119;50.932;5.342;2023-05-10T13:49:41;17.10;99.90
17988;DHT22;9119;50.932;5.342;2023-05-10T13:52:07;16.90;99.90
17988;DHT22;9119;50.932;5.342;2023-05-10T13:54:38;16.80;99.90
17988;DHT22;9119;50.932;5.342;2023-05-10T13:57:07;16.70;99.90
17988;DHT22;9119;50.932;5.342;2023-05-10T13:59:32;16.80;99.90
17988;DHT22;9119;50.932;5.342;2023-05-10T14:01:59;16.80;99.90
17988;DHT22;9119;50.932;5.342;2023-05-10T14:04:25;16.80;99.90
17988;DHT22;9119;50.932;5.342;2023-05-10T14:06:50;16.70;99.90
17988;DHT22;9119;50.932;5.342;2023-05-10T14:09:18;16.70;99.90
17988;DHT22;9119;50.932;5.342;2023-05-10T14:11:44;16.60;99.90
17988;DHT22;9119;50.932;5.342;2023-05-10T14:14:11;16.50;99.90
17988;DHT22;9119;50.932;5.342;2023-05-10T14:16:38;16.50;99.90
17988;DHT22;9119;50.932;5.342;2023-05-10T14:19:03;16.60;99.90
17988;DHT22;9119;50.932;5.342;2023-05-10T14:21:29;16.80;99.90
17988;DHT22;9119;50.932;5.342;2023-05-10T14:23:56;16.80;99.90
17988;DHT22;9119;50.932;5.342;2023-05-10T14:26:21;16.80;99.90
17988;DHT22;9119;50.932;5.342;2023-05-10T14:28:47;16.70;99.90
17988;DHT22;9119;50.932;5.342;2023-05-10T14:31:13;17.10;99.90
17988;DHT22;9119;50.932;5.342;2023-05-10T14:33:40;17.20;99.90
17988;DHT22;9119;50.932;5.342;2023-05-10T14:36:06;17.40;99.90
17988;DHT22;9119;50.932;5.342;2023-05-10T14:38:32;17.50;99.90
17988;DHT22;9119;50.932;5.342;2023-05-10T14:40:58;17.50;99.90
17988;DHT22;9119;50.932;5.342;2023-05-10T14:43:24;17.30;99.90
17988;DHT22;9119;50.932;5.342;2023-05-10T14:45:50;17.20;99.90
17988;DHT22;9119;50.932;5.342;2023-05-10T14:48:16;17.10;99.90
17988;DHT22;9119;50.932;5.342;2023-05-10T14:50:43;17.40;99.90
17988;DHT22;9119;50.932;5.342;2023-05-10T14:53:09;17.90;99.90
17988;DHT22;9119;50.932;5.342;2023-05-10T14:55:35;18.10;99.90
17988;DHT22;9119;50.932;5.342;2023-05-10T14:58:04;18.30;99.90
17988;DHT22;9119;50.932;5.342;2023-05-10T15:00:31;18.30;99.90
17988;DHT22;9119;50.932;5.342;2023-05-10T15:02:56;18.30;99.90
17988;DHT22;9119;50.932;5.342;2023-05-10T15:05:23;18.40;99.90
17988;DHT22;9119;50.932;5.342;2023-05-10T15:07:48;18.20;99.90
17988;DHT22;9119;50.932;5.342;2023-05-10T15:10:15;18.00;99.90
17988;DHT22;9119;50.932;5.342;2023-05-10T15:12:41;17.90;99.90
17988;DHT22;9119;50.932;5.342;2023-05-10T15:15:07;17.90;99.90
17988;DHT22;9119;50.932;5.342;2023-05-10T15:17:33;17.80;99.90
17988;DHT22;9119;50.932;5.342;2023-05-10T15:19:59;17.90;99.90
17988;DHT22;9119;50.932;5.342;2023-05-10T15:22:25;17.80;99.90
17988;DHT22;9119;50.932;5.342;2023-05-10T15:24:53;17.80;99.90
17988;DHT22;9119;50.932;5.342;2023-05-10T15:27:19;17.80;99.90
17988;DHT22;9119;50.932;5.342;2023-05-10T15:29:45;17.80;99.90
17988;DHT22;9119;50.932;5.342;2023-05-10T15:32:10;18.00;99.90
17988;DHT22;9119;50.932;5.342;2023-05-10T15:34:36;17.70;99.90
17988;DHT22;9119;50.932;5.342;2023-05-10T15:37:02;17.60;99.90
17988;DHT22;9119;50.932;5.342;2023-05-10T15:39:28;17.60;99.90
17988;DHT22;9119;50.932;5.342;2023-05-10T15:41:53;17.80;99.90
17988;DHT22;9119;50.932;5.342;2023-05-10T15:44:19;17.90;99.90
17988;DHT22;9119;50.932;5.342;2023-05-10T15:46:45;18.00;99.90
17988;DHT22;9119;50.932;5.342;2023-05-10T15:49:11;17.90;99.90
17988;DHT22;9119;50.932;5.342;2023-05-10T15:51:36;17.80;99.90
17988;DHT22;9119;50.932;5.342;2023-05-10T15:54:02;17.80;99.90
17988;DHT22;9119;50.932;5.342;2023-05-10T15:56:28;17.80;99.90
17988;DHT22;9119;50.932;5.342;2023-05-10T15:58:54;18.00;99.90
17988;DHT22;9119;50.932;5.342;2023-05-10T16:01:20;18.00;99.90
17988;DHT22;9119;50.932;5.342;2023-05-10T16:03:46;17.60;99.90
17988;DHT22;9119;50.932;5.342;2023-05-10T16:06:11;17.60;99.90
17988;DHT22;9119;50.932;5.342;2023-05-10T16:08:37;17.70;99.90
17988;DHT22;9119;50.932;5.342;2023-05-10T16:11:03;17.70;99.90
17988;DHT22;9119;50.932;5.342;2023-05-10T16:13:29;17.80;99.90
17988;DHT22;9119;50.932;5.342;2023-05-10T16:15:55;17.70;99.90
17988;DHT22;9119;50.932;5.342;2023-05-10T16:18:22;17.60;99.90